sensor_id;sensor_type;location;lat;lon;timestamp;temperature;humidity
59618;DHT22;45437;51.458;-2.568;2022-10-16T00:00:21;12.60;83.00
59618;DHT22;45437;51.458;-2.568;2022-10-16T00:01:23;12.60;83.00
59618;DHT22;45437;51.458;-2.568;2022-10-16T00:02:24;12.60;83.00
59618;DHT22;45437;51.458;-2.568;2022-10-16T00:03:25;12.60;82.90
59618;DHT22;45437;51.458;-2.568;2022-10-16T00:04:25;12.60;82.90
59618;DHT22;45437;51.458;-2.568;2022-10-16T00:05:26;12.60;82.70
59618;DHT22;45437;51.458;-2.568;2022-10-16T00:06:27;12.60;82.50
59618;DHT22;45437;51.458;-2.568;2022-10-16T00:07:28;12.60;82.80
59618;DHT22;45437;51.458;-2.568;2022-10-16T00:08:29;12.50;82.90
59618;DHT22;45437;51.458;-2.568;2022-10-16T00:09:29;12.50;83.30
59618;DHT22;45437;51.458;-2.568;2022-10-16T00:10:30;12.50;82.70
59618;DHT22;45437;51.458;-2.568;2022-10-16T00:11:32;12.50;82.50
59618;DHT22;45437;51.458;-2.568;2022-10-16T00:12:34;12.60;82.80
59618;DHT22;45437;51.458;-2.568;2022-10-16T00:13:35;12.50;82.80
59618;DHT22;45437;51.458;-2.568;2022-10-16T00:14:36;12.60;82.80
59618;DHT22;45437;51.458;-2.568;2022-10-16T00:15:37;12.60;82.90
59618;DHT22;45437;51.458;-2.568;2022-10-16T00:16:39;12.60;82.90
59618;DHT22;45437;51.458;-2.568;2022-10-16T00:17:40;12.60;82.90
59618;DHT22;45437;51.458;-2.568;2022-10-16T00:18:41;12.60;82.70
59618;DHT22;45437;51.458;-2.568;2022-10-16T00:19:42;12.60;82.60
59618;DHT22;45437;51.458;-2.568;2022-10-16T00:20:43;12.60;82.50
59618;DHT22;45437;51.458;-2.568;2022-10-16T00:21:43;12.60;82.50
59618;DHT22;45437;51.458;-2.568;2022-10-16T00:22:44;12.60;82.40
59618;DHT22;45437;51.458;-2.568;2022-10-16T00:23:45;12.50;82.60
59618;DHT22;45437;51.458;-2.568;2022-10-16T00:24:46;12.50;82.50
59618;DHT22;45437;51.458;-2.568;2022-10-16T00:25:57;12.50;82.50
59618;DHT22;45437;51.458;-2.568;2022-10-16T00:26:58;12.50;82.50
59618;DHT22;45437;51.458;-2.568;2022-10-16T00:27:59;12.60;83.00
59618;DHT22;45437;51.458;-2.568;2022-10-16T00:29:00;12.60;82.80
59618;DHT22;45437;51.458;-2.568;2022-10-16T00:30:01;12.50;82.70
59618;DHT22;45437;51.458;-2.568;2022-10-16T00:31:07;12.50;82.80
59618;DHT22;45437;51.458;-2.568;2022-10-16T00:32:08;12.50;82.50
59618;DHT22;45437;51.458;-2.568;2022-10-16T00:33:09;12.50;82.50
59618;DHT22;45437;51.458;-2.568;2022-10-16T00:34:10;12.60;82.50
59618;DHT22;45437;51.458;-2.568;2022-10-16T00:35:10;12.50;82.80
59618;DHT22;45437;51.458;-2.568;2022-10-16T00:36:13;12.50;82.40
59618;DHT22;45437;51.458;-2.568;2022-10-16T00:37:14;12.50;82.30
59618;DHT22;45437;51.458;-2.568;2022-10-16T00:38:15;12.50;82.60
59618;DHT22;45437;51.458;-2.568;2022-10-16T00:39:15;12.50;82.50
59618;DHT22;45437;51.458;-2.568;2022-10-16T00:40:16;12.50;82.40
59618;DHT22;45437;51.458;-2.568;2022-10-16T00:41:17;12.50;82.00
59618;DHT22;45437;51.458;-2.568;2022-10-16T00:42:18;12.50;82.30
59618;DHT22;45437;51.458;-2.568;2022-10-16T00:43:33;12.50;82.00
59618;DHT22;45437;51.458;-2.568;2022-10-16T00:45:43;12.50;82.00
59618;DHT22;45437;51.458;-2.568;2022-10-16T00:46:44;12.50;82.30
59618;DHT22;45437;51.458;-2.568;2022-10-16T00:47:45;12.40;82.40
59618;DHT22;45437;51.458;-2.568;2022-10-16T00:48:57;12.40;82.20
59618;DHT22;45437;51.458;-2.568;2022-10-16T00:51:07;12.50;81.90
59618;DHT22;45437;51.458;-2.568;2022-10-16T00:52:08;12.40;81.90
59618;DHT22;45437;51.458;-2.568;2022-10-16T00:53:08;12.50;82.30
59618;DHT22;45437;51.458;-2.568;2022-10-16T00:54:14;12.40;82.00
59618;DHT22;45437;51.458;-2.568;2022-10-16T00:55:15;12.40;81.80
59618;DHT22;45437;51.458;-2.568;2022-10-16T00:56:16;12.40;81.80
59618;DHT22;45437;51.458;-2.568;2022-10-16T00:57:17;12.40;82.00
59618;DHT22;45437;51.458;-2.568;2022-10-16T00:58:18;12.40;82.30
59618;DHT22;45437;51.458;-2.568;2022-10-16T00:59:23;12.40;81.60
59618;DHT22;45437;51.458;-2.568;2022-10-16T01:00:26;12.40;82.00
59618;DHT22;45437;51.458;-2.568;2022-10-16T01:01:27;12.40;82.80
59618;DHT22;45437;51.458;-2.568;2022-10-16T01:02:28;12.40;81.80
59618;DHT22;45437;51.458;-2.568;2022-10-16T01:03:31;12.40;81.70
59618;DHT22;45437;51.458;-2.568;2022-10-16T01:04:53;12.40;81.60
59618;DHT22;45437;51.458;-2.568;2022-10-16T01:06:05;12.40;81.60
59618;DHT22;45437;51.458;-2.568;2022-10-16T01:08:27;12.40;81.60
59618;DHT22;45437;51.458;-2.568;2022-10-16T01:09:37;12.40;81.80
59618;DHT22;45437;51.458;-2.568;2022-10-16T01:10:41;12.40;81.80
59618;DHT22;45437;51.458;-2.568;2022-10-16T01:13:11;12.40;81.70
59618;DHT22;45437;51.458;-2.568;2022-10-16T01:14:19;12.40;81.80
59618;DHT22;45437;51.458;-2.568;2022-10-16T01:15:29;12.40;82.10
59618;DHT22;45437;51.458;-2.568;2022-10-16T01:17:37;12.30;82.00
59618;DHT22;45437;51.458;-2.568;2022-10-16T01:18:41;12.40;81.50
59618;DHT22;45437;51.458;-2.568;2022-10-16T01:20:50;12.30;81.70
59618;DHT22;45437;51.458;-2.568;2022-10-16T01:21:53;12.40;82.10
59618;DHT22;45437;51.458;-2.568;2022-10-16T01:25:08;12.30;81.20
59618;DHT22;45437;51.458;-2.568;2022-10-16T01:27:21;12.30;81.70
59618;DHT22;45437;51.458;-2.568;2022-10-16T01:28:24;12.30;81.60
59618;DHT22;45437;51.458;-2.568;2022-10-16T01:29:34;12.30;81.20
59618;DHT22;45437;51.458;-2.568;2022-10-16T01:30:37;12.30;81.50
59618;DHT22;45437;51.458;-2.568;2022-10-16T01:31:40;12.30;81.80
59618;DHT22;45437;51.458;-2.568;2022-10-16T01:33:43;12.20;81.80
59618;DHT22;45437;51.458;-2.568;2022-10-16T01:34:52;12.20;82.00
59618;DHT22;45437;51.458;-2.568;2022-10-16T01:35:55;12.30;82.00
59618;DHT22;45437;51.458;-2.568;2022-10-16T01:37:01;12.30;82.20
59618;DHT22;45437;51.458;-2.568;2022-10-16T01:39:12;12.30;81.60
59618;DHT22;45437;51.458;-2.568;2022-10-16T01:40:14;12.30;81.90
59618;DHT22;45437;51.458;-2.568;2022-10-16T01:41:17;12.20;81.20
59618;DHT22;45437;51.458;-2.568;2022-10-16T01:42:23;12.20;81.60
59618;DHT22;45437;51.458;-2.568;2022-10-16T01:43:26;12.30;81.00
59618;DHT22;45437;51.458;-2.568;2022-10-16T01:44:29;12.20;81.30
59618;DHT22;45437;51.458;-2.568;2022-10-16T01:45:31;12.20;81.40
59618;DHT22;45437;51.458;-2.568;2022-10-16T01:46:32;12.20;81.80
59618;DHT22;45437;51.458;-2.568;2022-10-16T01:47:34;12.20;81.30
59618;DHT22;45437;51.458;-2.568;2022-10-16T01:48:36;12.30;81.80
59618;DHT22;45437;51.458;-2.568;2022-10-16T01:49:37;12.20;81.50
59618;DHT22;45437;51.458;-2.568;2022-10-16T01:50:39;12.30;81.30
59618;DHT22;45437;51.458;-2.568;2022-10-16T01:51:42;12.20;81.50
59618;DHT22;45437;51.458;-2.568;2022-10-16T01:52:45;12.30;81.80
59618;DHT22;45437;51.458;-2.568;2022-10-16T01:53:48;12.30;82.00
59618;DHT22;45437;51.458;-2.568;2022-10-16T01:54:50;12.20;81.80
59618;DHT22;45437;51.458;-2.568;2022-10-16T01:55:52;12.30;81.80
59618;DHT22;45437;51.458;-2.568;2022-10-16T01:56:55;12.20;81.50
59618;DHT22;45437;51.458;-2.568;2022-10-16T01:57:56;12.20;81.40
59618;DHT22;45437;51.458;-2.568;2022-10-16T01:59:05;12.20;81.30
59618;DHT22;45437;51.458;-2.568;2022-10-16T02:00:07;12.20;81.90
59618;DHT22;45437;51.458;-2.568;2022-10-16T02:01:12;12.20;81.80
59618;DHT22;45437;51.458;-2.568;2022-10-16T02:02:16;12.20;82.00
59618;DHT22;45437;51.458;-2.568;2022-10-16T02:03:18;12.20;82.00
59618;DHT22;45437;51.458;-2.568;2022-10-16T02:06:24;12.20;81.40
59618;DHT22;45437;51.458;-2.568;2022-10-16T02:07:26;12.20;82.10
59618;DHT22;45437;51.458;-2.568;2022-10-16T02:08:27;12.20;81.60
59618;DHT22;45437;51.458;-2.568;2022-10-16T02:09:29;12.20;81.90
59618;DHT22;45437;51.458;-2.568;2022-10-16T02:10:30;12.20;82.00
59618;DHT22;45437;51.458;-2.568;2022-10-16T02:11:31;12.20;81.60
59618;DHT22;45437;51.458;-2.568;2022-10-16T02:12:33;12.20;82.00
59618;DHT22;45437;51.458;-2.568;2022-10-16T02:13:48;12.20;82.00
59618;DHT22;45437;51.458;-2.568;2022-10-16T02:14:49;12.20;82.00
59618;DHT22;45437;51.458;-2.568;2022-10-16T02:15:50;12.20;82.30
59618;DHT22;45437;51.458;-2.568;2022-10-16T02:16:54;12.20;82.30
59618;DHT22;45437;51.458;-2.568;2022-10-16T02:17:55;12.20;82.40
59618;DHT22;45437;51.458;-2.568;2022-10-16T02:18:56;12.20;82.40
59618;DHT22;45437;51.458;-2.568;2022-10-16T02:19:56;12.20;82.60
59618;DHT22;45437;51.458;-2.568;2022-10-16T02:22:28;12.20;82.10
59618;DHT22;45437;51.458;-2.568;2022-10-16T02:23:34;12.20;82.20
59618;DHT22;45437;51.458;-2.568;2022-10-16T02:24:43;12.20;82.20
59618;DHT22;45437;51.458;-2.568;2022-10-16T02:25:46;12.20;82.20
59618;DHT22;45437;51.458;-2.568;2022-10-16T02:29:01;12.20;82.00
59618;DHT22;45437;51.458;-2.568;2022-10-16T02:30:13;12.20;82.30
59618;DHT22;45437;51.458;-2.568;2022-10-16T02:31:16;12.20;82.50
59618;DHT22;45437;51.458;-2.568;2022-10-16T02:32:22;12.20;82.40
59618;DHT22;45437;51.458;-2.568;2022-10-16T02:33:23;12.20;82.40
59618;DHT22;45437;51.458;-2.568;2022-10-16T02:34:25;12.20;82.40
59618;DHT22;45437;51.458;-2.568;2022-10-16T02:35:26;12.20;82.30
59618;DHT22;45437;51.458;-2.568;2022-10-16T02:36:28;12.20;82.40
59618;DHT22;45437;51.458;-2.568;2022-10-16T02:37:29;12.20;82.20
59618;DHT22;45437;51.458;-2.568;2022-10-16T02:38:31;12.20;82.20
59618;DHT22;45437;51.458;-2.568;2022-10-16T02:39:31;12.20;82.30
59618;DHT22;45437;51.458;-2.568;2022-10-16T02:40:32;12.20;82.40
59618;DHT22;45437;51.458;-2.568;2022-10-16T02:41:33;12.20;82.40
59618;DHT22;45437;51.458;-2.568;2022-10-16T02:42:35;12.20;82.60
59618;DHT22;45437;51.458;-2.568;2022-10-16T02:43:36;12.20;82.40
59618;DHT22;45437;51.458;-2.568;2022-10-16T02:44:37;12.20;82.10
59618;DHT22;45437;51.458;-2.568;2022-10-16T02:45:37;12.20;82.20
59618;DHT22;45437;51.458;-2.568;2022-10-16T02:46:38;12.20;82.30
59618;DHT22;45437;51.458;-2.568;2022-10-16T02:47:39;12.20;82.60
59618;DHT22;45437;51.458;-2.568;2022-10-16T02:48:39;12.20;82.60
59618;DHT22;45437;51.458;-2.568;2022-10-16T02:49:40;12.20;82.50
59618;DHT22;45437;51.458;-2.568;2022-10-16T02:50:41;12.20;82.60
59618;DHT22;45437;51.458;-2.568;2022-10-16T02:51:41;12.20;82.70
59618;DHT22;45437;51.458;-2.568;2022-10-16T02:52:42;12.20;82.70
59618;DHT22;45437;51.458;-2.568;2022-10-16T02:53:43;12.20;82.60
59618;DHT22;45437;51.458;-2.568;2022-10-16T02:54:44;12.20;82.20
59618;DHT22;45437;51.458;-2.568;2022-10-16T02:55:44;12.20;82.10
59618;DHT22;45437;51.458;-2.568;2022-10-16T02:56:45;12.20;82.40
59618;DHT22;45437;51.458;-2.568;2022-10-16T02:57:46;12.20;82.50
59618;DHT22;45437;51.458;-2.568;2022-10-16T02:58:47;12.20;82.50
59618;DHT22;45437;51.458;-2.568;2022-10-16T02:59:47;12.20;82.70
59618;DHT22;45437;51.458;-2.568;2022-10-16T03:00:48;12.20;82.20
59618;DHT22;45437;51.458;-2.568;2022-10-16T03:01:49;12.10;82.20
59618;DHT22;45437;51.458;-2.568;2022-10-16T03:02:49;12.20;82.70
59618;DHT22;45437;51.458;-2.568;2022-10-16T03:03:50;12.20;82.70
59618;DHT22;45437;51.458;-2.568;2022-10-16T03:04:51;12.10;82.60
59618;DHT22;45437;51.458;-2.568;2022-10-16T03:05:52;12.10;82.60
59618;DHT22;45437;51.458;-2.568;2022-10-16T03:06:53;12.20;82.60
59618;DHT22;45437;51.458;-2.568;2022-10-16T03:07:53;12.20;82.50
59618;DHT22;45437;51.458;-2.568;2022-10-16T03:08:54;12.20;82.50
59618;DHT22;45437;51.458;-2.568;2022-10-16T03:09:55;12.10;82.60
59618;DHT22;45437;51.458;-2.568;2022-10-16T03:10:56;12.10;82.70
59618;DHT22;45437;51.458;-2.568;2022-10-16T03:11:56;12.10;82.20
59618;DHT22;45437;51.458;-2.568;2022-10-16T03:12:57;12.10;82.50
59618;DHT22;45437;51.458;-2.568;2022-10-16T03:13:58;12.10;82.50
59618;DHT22;45437;51.458;-2.568;2022-10-16T03:14:59;12.10;82.60
59618;DHT22;45437;51.458;-2.568;2022-10-16T03:15:59;12.10;82.60
59618;DHT22;45437;51.458;-2.568;2022-10-16T03:17:00;12.10;82.70
59618;DHT22;45437;51.458;-2.568;2022-10-16T03:18:01;12.10;83.00
59618;DHT22;45437;51.458;-2.568;2022-10-16T03:19:02;12.10;83.00
59618;DHT22;45437;51.458;-2.568;2022-10-16T03:20:03;12.10;82.60
59618;DHT22;45437;51.458;-2.568;2022-10-16T03:21:04;12.10;82.60
59618;DHT22;45437;51.458;-2.568;2022-10-16T03:22:04;12.10;82.00
59618;DHT22;45437;51.458;-2.568;2022-10-16T03:23:05;12.10;82.30
59618;DHT22;45437;51.458;-2.568;2022-10-16T03:24:07;12.10;82.50
59618;DHT22;45437;51.458;-2.568;2022-10-16T03:25:07;12.10;82.70
59618;DHT22;45437;51.458;-2.568;2022-10-16T03:26:08;12.10;82.70
59618;DHT22;45437;51.458;-2.568;2022-10-16T03:27:09;12.10;82.90
59618;DHT22;45437;51.458;-2.568;2022-10-16T03:28:10;12.10;82.40
59618;DHT22;45437;51.458;-2.568;2022-10-16T03:29:10;12.10;82.70
59618;DHT22;45437;51.458;-2.568;2022-10-16T03:30:11;12.10;82.80
59618;DHT22;45437;51.458;-2.568;2022-10-16T03:31:12;12.10;82.90
59618;DHT22;45437;51.458;-2.568;2022-10-16T03:32:13;12.10;82.80
59618;DHT22;45437;51.458;-2.568;2022-10-16T03:33:13;12.10;82.70
59618;DHT22;45437;51.458;-2.568;2022-10-16T03:34:14;12.10;82.70
59618;DHT22;45437;51.458;-2.568;2022-10-16T03:35:15;12.10;82.70
59618;DHT22;45437;51.458;-2.568;2022-10-16T03:36:16;12.10;82.60
59618;DHT22;45437;51.458;-2.568;2022-10-16T03:37:16;12.10;82.80
59618;DHT22;45437;51.458;-2.568;2022-10-16T03:38:17;12.10;83.00
59618;DHT22;45437;51.458;-2.568;2022-10-16T03:39:18;12.10;82.80
59618;DHT22;45437;51.458;-2.568;2022-10-16T03:40:19;12.10;82.70
59618;DHT22;45437;51.458;-2.568;2022-10-16T03:41:19;12.10;82.80
59618;DHT22;45437;51.458;-2.568;2022-10-16T03:42:20;12.10;83.00
59618;DHT22;45437;51.458;-2.568;2022-10-16T03:43:21;12.10;83.20
59618;DHT22;45437;51.458;-2.568;2022-10-16T03:44:22;12.10;83.20
59618;DHT22;45437;51.458;-2.568;2022-10-16T03:45:23;12.10;83.00
59618;DHT22;45437;51.458;-2.568;2022-10-16T03:46:23;12.10;83.30
59618;DHT22;45437;51.458;-2.568;2022-10-16T03:47:24;12.10;83.50
59618;DHT22;45437;51.458;-2.568;2022-10-16T03:48:25;12.10;83.60
59618;DHT22;45437;51.458;-2.568;2022-10-16T03:49:25;12.10;83.70
59618;DHT22;45437;51.458;-2.568;2022-10-16T03:50:26;12.10;83.60
59618;DHT22;45437;51.458;-2.568;2022-10-16T03:51:27;12.10;83.60
59618;DHT22;45437;51.458;-2.568;2022-10-16T03:52:27;12.10;83.60
59618;DHT22;45437;51.458;-2.568;2022-10-16T03:53:28;12.10;83.70
59618;DHT22;45437;51.458;-2.568;2022-10-16T03:54:29;12.10;84.00
59618;DHT22;45437;51.458;-2.568;2022-10-16T03:55:30;12.10;84.30
59618;DHT22;45437;51.458;-2.568;2022-10-16T03:56:30;12.10;84.30
59618;DHT22;45437;51.458;-2.568;2022-10-16T03:57:31;12.10;84.00
59618;DHT22;45437;51.458;-2.568;2022-10-16T03:58:32;12.10;84.20
59618;DHT22;45437;51.458;-2.568;2022-10-16T03:59:32;12.10;84.10
59618;DHT22;45437;51.458;-2.568;2022-10-16T04:00:33;12.10;84.10
59618;DHT22;45437;51.458;-2.568;2022-10-16T04:01:35;12.10;84.10
59618;DHT22;45437;51.458;-2.568;2022-10-16T04:02:35;12.10;84.10
59618;DHT22;45437;51.458;-2.568;2022-10-16T04:03:36;12.10;84.20
59618;DHT22;45437;51.458;-2.568;2022-10-16T04:04:37;12.10;84.20
59618;DHT22;45437;51.458;-2.568;2022-10-16T04:05:38;12.10;84.40
59618;DHT22;45437;51.458;-2.568;2022-10-16T04:06:39;12.10;84.20
59618;DHT22;45437;51.458;-2.568;2022-10-16T04:07:40;12.10;84.30
59618;DHT22;45437;51.458;-2.568;2022-10-16T04:08:42;12.10;84.40
59618;DHT22;45437;51.458;-2.568;2022-10-16T04:09:43;12.10;84.20
59618;DHT22;45437;51.458;-2.568;2022-10-16T04:10:43;12.10;84.40
59618;DHT22;45437;51.458;-2.568;2022-10-16T04:11:44;12.10;84.60
59618;DHT22;45437;51.458;-2.568;2022-10-16T04:12:45;12.10;84.40
59618;DHT22;45437;51.458;-2.568;2022-10-16T04:13:46;12.10;84.40
59618;DHT22;45437;51.458;-2.568;2022-10-16T04:14:46;12.10;84.40
59618;DHT22;45437;51.458;-2.568;2022-10-16T04:15:47;12.10;84.40
59618;DHT22;45437;51.458;-2.568;2022-10-16T04:16:48;12.10;84.60
59618;DHT22;45437;51.458;-2.568;2022-10-16T04:17:48;12.10;84.50
59618;DHT22;45437;51.458;-2.568;2022-10-16T04:18:49;12.10;84.50
59618;DHT22;45437;51.458;-2.568;2022-10-16T04:19:50;12.10;84.60
59618;DHT22;45437;51.458;-2.568;2022-10-16T04:20:51;12.10;84.70
59618;DHT22;45437;51.458;-2.568;2022-10-16T04:21:51;12.10;84.60
59618;DHT22;45437;51.458;-2.568;2022-10-16T04:22:52;12.10;84.60
59618;DHT22;45437;51.458;-2.568;2022-10-16T04:23:53;12.10;84.50
59618;DHT22;45437;51.458;-2.568;2022-10-16T04:24:53;12.10;84.40
59618;DHT22;45437;51.458;-2.568;2022-10-16T04:25:54;12.10;84.60
59618;DHT22;45437;51.458;-2.568;2022-10-16T04:26:55;12.10;84.50
59618;DHT22;45437;51.458;-2.568;2022-10-16T04:27:56;12.10;84.60
59618;DHT22;45437;51.458;-2.568;2022-10-16T04:28:57;12.10;84.60
59618;DHT22;45437;51.458;-2.568;2022-10-16T04:29:58;12.10;84.50
59618;DHT22;45437;51.458;-2.568;2022-10-16T04:30:59;12.00;84.40
59618;DHT22;45437;51.458;-2.568;2022-10-16T04:32:00;12.10;84.60
59618;DHT22;45437;51.458;-2.568;2022-10-16T04:33:00;12.10;84.60
59618;DHT22;45437;51.458;-2.568;2022-10-16T04:34:01;12.00;84.50
59618;DHT22;45437;51.458;-2.568;2022-10-16T04:35:02;12.10;84.50
59618;DHT22;45437;51.458;-2.568;2022-10-16T04:36:03;12.10;84.40
59618;DHT22;45437;51.458;-2.568;2022-10-16T04:37:04;12.10;84.50
59618;DHT22;45437;51.458;-2.568;2022-10-16T04:38:04;12.10;84.70
59618;DHT22;45437;51.458;-2.568;2022-10-16T04:39:05;12.10;84.70
59618;DHT22;45437;51.458;-2.568;2022-10-16T04:40:06;12.10;84.70
59618;DHT22;45437;51.458;-2.568;2022-10-16T04:41:07;12.10;84.50
59618;DHT22;45437;51.458;-2.568;2022-10-16T04:42:08;12.10;84.40
59618;DHT22;45437;51.458;-2.568;2022-10-16T04:43:09;12.10;84.60
59618;DHT22;45437;51.458;-2.568;2022-10-16T04:44:10;12.10;84.40
59618;DHT22;45437;51.458;-2.568;2022-10-16T04:45:10;12.00;84.30
59618;DHT22;45437;51.458;-2.568;2022-10-16T04:46:11;12.10;84.60
59618;DHT22;45437;51.458;-2.568;2022-10-16T04:47:12;12.10;84.90
59618;DHT22;45437;51.458;-2.568;2022-10-16T04:48:14;12.10;84.80
59618;DHT22;45437;51.458;-2.568;2022-10-16T04:49:14;12.10;84.70
59618;DHT22;45437;51.458;-2.568;2022-10-16T04:50:15;12.10;84.80
59618;DHT22;45437;51.458;-2.568;2022-10-16T04:51:35;12.10;84.80
59618;DHT22;45437;51.458;-2.568;2022-10-16T04:52:35;12.10;84.80
59618;DHT22;45437;51.458;-2.568;2022-10-16T04:53:36;12.10;84.80
59618;DHT22;45437;51.458;-2.568;2022-10-16T04:54:37;12.00;84.80
59618;DHT22;45437;51.458;-2.568;2022-10-16T04:55:38;12.10;85.00
59618;DHT22;45437;51.458;-2.568;2022-10-16T04:56:38;12.10;85.00
59618;DHT22;45437;51.458;-2.568;2022-10-16T04:57:50;12.10;85.10
59618;DHT22;45437;51.458;-2.568;2022-10-16T04:58:51;12.10;85.10
59618;DHT22;45437;51.458;-2.568;2022-10-16T04:59:52;12.10;85.00
59618;DHT22;45437;51.458;-2.568;2022-10-16T05:00:53;12.10;85.00
59618;DHT22;45437;51.458;-2.568;2022-10-16T05:01:53;12.00;84.90
59618;DHT22;45437;51.458;-2.568;2022-10-16T05:02:54;12.10;85.00
59618;DHT22;45437;51.458;-2.568;2022-10-16T05:03:55;12.10;85.10
59618;DHT22;45437;51.458;-2.568;2022-10-16T05:04:56;12.00;85.10
59618;DHT22;45437;51.458;-2.568;2022-10-16T05:05:56;12.10;85.00
59618;DHT22;45437;51.458;-2.568;2022-10-16T05:06:57;12.10;85.00
59618;DHT22;45437;51.458;-2.568;2022-10-16T05:07:58;12.10;85.00
59618;DHT22;45437;51.458;-2.568;2022-10-16T05:08:58;12.00;85.00
59618;DHT22;45437;51.458;-2.568;2022-10-16T05:09:59;12.10;84.80
59618;DHT22;45437;51.458;-2.568;2022-10-16T05:11:00;12.10;85.00
59618;DHT22;45437;51.458;-2.568;2022-10-16T05:12:01;12.00;85.00
59618;DHT22;45437;51.458;-2.568;2022-10-16T05:13:03;12.10;85.20
59618;DHT22;45437;51.458;-2.568;2022-10-16T05:14:04;12.10;85.20
59618;DHT22;45437;51.458;-2.568;2022-10-16T05:15:05;12.00;85.10
59618;DHT22;45437;51.458;-2.568;2022-10-16T05:16:06;12.10;85.80
59618;DHT22;45437;51.458;-2.568;2022-10-16T05:17:07;12.10;85.00
59618;DHT22;45437;51.458;-2.568;2022-10-16T05:18:08;12.00;85.00
59618;DHT22;45437;51.458;-2.568;2022-10-16T05:19:09;12.10;85.00
59618;DHT22;45437;51.458;-2.568;2022-10-16T05:20:10;12.00;84.90
59618;DHT22;45437;51.458;-2.568;2022-10-16T05:21:11;12.10;85.10
59618;DHT22;45437;51.458;-2.568;2022-10-16T05:22:11;12.00;84.90
59618;DHT22;45437;51.458;-2.568;2022-10-16T05:23:12;12.10;85.10
59618;DHT22;45437;51.458;-2.568;2022-10-16T05:24:13;12.00;85.10
59618;DHT22;45437;51.458;-2.568;2022-10-16T05:25:14;12.00;85.10
59618;DHT22;45437;51.458;-2.568;2022-10-16T05:26:15;12.00;85.10
59618;DHT22;45437;51.458;-2.568;2022-10-16T05:27:15;12.00;85.10
59618;DHT22;45437;51.458;-2.568;2022-10-16T05:28:19;12.00;85.10
59618;DHT22;45437;51.458;-2.568;2022-10-16T05:29:20;12.00;85.10
59618;DHT22;45437;51.458;-2.568;2022-10-16T05:30:21;12.00;85.10
59618;DHT22;45437;51.458;-2.568;2022-10-16T05:31:22;12.00;85.10
59618;DHT22;45437;51.458;-2.568;2022-10-16T05:32:22;12.00;85.10
59618;DHT22;45437;51.458;-2.568;2022-10-16T05:33:24;12.00;85.10
59618;DHT22;45437;51.458;-2.568;2022-10-16T05:34:25;12.00;85.10
59618;DHT22;45437;51.458;-2.568;2022-10-16T05:35:25;12.00;84.90
59618;DHT22;45437;51.458;-2.568;2022-10-16T05:36:26;12.10;85.20
59618;DHT22;45437;51.458;-2.568;2022-10-16T05:37:27;12.00;85.10
59618;DHT22;45437;51.458;-2.568;2022-10-16T05:38:28;12.00;85.20
59618;DHT22;45437;51.458;-2.568;2022-10-16T05:39:28;12.10;85.30
59618;DHT22;45437;51.458;-2.568;2022-10-16T05:40:29;12.00;85.20
59618;DHT22;45437;51.458;-2.568;2022-10-16T05:41:30;12.00;85.20
59618;DHT22;45437;51.458;-2.568;2022-10-16T05:42:31;12.00;85.10
59618;DHT22;45437;51.458;-2.568;2022-10-16T05:43:32;12.00;85.00
59618;DHT22;45437;51.458;-2.568;2022-10-16T05:44:33;12.00;85.20
59618;DHT22;45437;51.458;-2.568;2022-10-16T05:45:34;12.00;85.00
59618;DHT22;45437;51.458;-2.568;2022-10-16T05:46:34;12.00;85.00
59618;DHT22;45437;51.458;-2.568;2022-10-16T05:47:35;12.00;85.10
59618;DHT22;45437;51.458;-2.568;2022-10-16T05:48:36;12.00;85.20
59618;DHT22;45437;51.458;-2.568;2022-10-16T05:49:36;12.00;85.40
59618;DHT22;45437;51.458;-2.568;2022-10-16T05:50:38;12.00;85.30
59618;DHT22;45437;51.458;-2.568;2022-10-16T05:51:39;12.00;85.40
59618;DHT22;45437;51.458;-2.568;2022-10-16T05:52:40;12.00;85.40
59618;DHT22;45437;51.458;-2.568;2022-10-16T05:53:41;12.00;85.40
59618;DHT22;45437;51.458;-2.568;2022-10-16T05:54:41;12.00;85.30
59618;DHT22;45437;51.458;-2.568;2022-10-16T05:55:42;12.00;85.40
59618;DHT22;45437;51.458;-2.568;2022-10-16T05:56:43;12.00;85.10
59618;DHT22;45437;51.458;-2.568;2022-10-16T05:57:44;12.00;85.20
59618;DHT22;45437;51.458;-2.568;2022-10-16T05:58:44;12.00;85.20
59618;DHT22;45437;51.458;-2.568;2022-10-16T05:59:45;12.00;85.20
59618;DHT22;45437;51.458;-2.568;2022-10-16T06:00:55;12.00;85.80
59618;DHT22;45437;51.458;-2.568;2022-10-16T06:01:57;12.00;85.20
59618;DHT22;45437;51.458;-2.568;2022-10-16T06:02:57;12.00;85.20
59618;DHT22;45437;51.458;-2.568;2022-10-16T06:03:58;12.00;85.10
59618;DHT22;45437;51.458;-2.568;2022-10-16T06:04:59;12.00;85.10
59618;DHT22;45437;51.458;-2.568;2022-10-16T06:06:06;12.00;85.10
59618;DHT22;45437;51.458;-2.568;2022-10-16T06:07:07;12.00;85.20
59618;DHT22;45437;51.458;-2.568;2022-10-16T06:08:08;12.00;85.30
59618;DHT22;45437;51.458;-2.568;2022-10-16T06:09:09;12.00;85.50
59618;DHT22;45437;51.458;-2.568;2022-10-16T06:10:10;12.00;85.40
59618;DHT22;45437;51.458;-2.568;2022-10-16T06:11:11;12.00;85.40
59618;DHT22;45437;51.458;-2.568;2022-10-16T06:12:12;12.00;85.40
59618;DHT22;45437;51.458;-2.568;2022-10-16T06:13:13;12.00;85.60
59618;DHT22;45437;51.458;-2.568;2022-10-16T06:14:14;12.00;85.60
59618;DHT22;45437;51.458;-2.568;2022-10-16T06:15:15;12.00;85.70
59618;DHT22;45437;51.458;-2.568;2022-10-16T06:16:16;12.00;85.70
59618;DHT22;45437;51.458;-2.568;2022-10-16T06:17:16;12.00;85.80
59618;DHT22;45437;51.458;-2.568;2022-10-16T06:18:17;12.00;85.80
59618;DHT22;45437;51.458;-2.568;2022-10-16T06:19:18;12.00;85.70
59618;DHT22;45437;51.458;-2.568;2022-10-16T06:20:18;12.00;85.80
59618;DHT22;45437;51.458;-2.568;2022-10-16T06:21:20;12.00;85.80
59618;DHT22;45437;51.458;-2.568;2022-10-16T06:22:21;12.00;85.80
59618;DHT22;45437;51.458;-2.568;2022-10-16T06:23:22;12.00;85.80
59618;DHT22;45437;51.458;-2.568;2022-10-16T06:24:23;12.00;85.90
59618;DHT22;45437;51.458;-2.568;2022-10-16T06:25:24;12.00;85.80
59618;DHT22;45437;51.458;-2.568;2022-10-16T06:26:25;12.00;85.90
59618;DHT22;45437;51.458;-2.568;2022-10-16T06:27:26;12.00;85.70
59618;DHT22;45437;51.458;-2.568;2022-10-16T06:28:27;12.00;85.70
59618;DHT22;45437;51.458;-2.568;2022-10-16T06:29:28;12.00;85.80
59618;DHT22;45437;51.458;-2.568;2022-10-16T06:30:28;12.00;85.80
59618;DHT22;45437;51.458;-2.568;2022-10-16T06:31:29;12.00;85.90
59618;DHT22;45437;51.458;-2.568;2022-10-16T06:32:33;12.00;85.90
59618;DHT22;45437;51.458;-2.568;2022-10-16T06:33:34;12.00;86.00
59618;DHT22;45437;51.458;-2.568;2022-10-16T06:34:35;12.00;86.00
59618;DHT22;45437;51.458;-2.568;2022-10-16T06:35:36;12.00;86.00
59618;DHT22;45437;51.458;-2.568;2022-10-16T06:36:37;12.00;86.00
59618;DHT22;45437;51.458;-2.568;2022-10-16T06:37:37;12.00;86.10
59618;DHT22;45437;51.458;-2.568;2022-10-16T06:38:38;12.00;86.10
59618;DHT22;45437;51.458;-2.568;2022-10-16T06:39:39;12.00;85.90
59618;DHT22;45437;51.458;-2.568;2022-10-16T06:40:40;12.00;85.80
59618;DHT22;45437;51.458;-2.568;2022-10-16T06:41:41;11.90;85.80